Brighton, South Carolina
Current Conditions -  °F | °C
As of 6:15 AM on Friday 28 Nov 2014 (Local Time) from KJYL Reporting Station
Clear Clear  
Wind Chill: 34°   Ceiling: Unl
Heat Index: 34°   Visibility: 10mi
Dew Point: 32°   Wind: 3mph
Humidity: 92%   Direction: 340°NNW
Pressure: 30.37"   Gusts: NA
Location:  32.6001°N, 81.2393°W
Report Text: KJYL 281115Z AUTO 34003KT 10SM CLR 01/00 A3037 RMK AO2 T00101002
Loading
Personal Weather Stations






























Interactive Weather Map New forecast layout! Learn more

10-Day Weather Forecast

Advertisements
Track Severe Weather on mobile